createdAt,value
2022-10-13T00:01:12.946Z,10.15
2022-10-13T00:03:41.922Z,10.02
2022-10-13T00:06:11.450Z,9.10
2022-10-13T00:08:39.989Z,9.95
2022-10-13T00:11:16.860Z,10.52
2022-10-13T00:13:45.514Z,11.43
2022-10-13T00:16:14.829Z,10.07
2022-10-13T00:18:42.698Z,11.40
2022-10-13T00:21:12.649Z,11.18
2022-10-13T00:23:40.318Z,9.63
2022-10-13T00:26:10.805Z,9.98
2022-10-13T00:28:39.077Z,10.65
2022-10-13T00:31:19.687Z,9.98
2022-10-13T00:33:47.430Z,10.70
2022-10-13T00:36:15.259Z,10.25
2022-10-13T00:38:42.843Z,9.90
2022-10-13T00:41:10.476Z,10.23
2022-10-13T00:44:04.061Z,10.00
2022-10-13T00:46:37.106Z,10.68
2022-10-13T00:49:09.749Z,10.05
2022-10-13T00:51:45.025Z,9.85
2022-10-13T00:54:18.001Z,10.45
2022-10-13T00:56:46.744Z,10.73
2022-10-13T00:59:22.885Z,10.88
2022-10-13T01:01:52.874Z,11.35
2022-10-13T01:04:23.505Z,10.85
2022-10-13T01:06:52.310Z,9.43
2022-10-13T01:09:19.818Z,9.85
2022-10-13T01:12:06.007Z,10.95
2022-10-13T01:15:11.977Z,10.10
2022-10-13T01:18:16.566Z,9.52
2022-10-13T01:21:09.099Z,10.35
2022-10-13T01:23:54.949Z,10.20
2022-10-13T01:26:27.966Z,9.80
2022-10-13T01:28:58.082Z,10.27
2022-10-13T01:31:34.232Z,10.35
2022-10-13T01:34:42.656Z,9.32
2022-10-13T01:37:12.744Z,9.88
2022-10-13T01:39:55.258Z,11.05
2022-10-13T01:42:44.753Z,10.30
2022-10-13T01:45:19.386Z,9.43
2022-10-13T01:47:48.211Z,9.25
2022-10-13T01:50:18.321Z,10.15
2022-10-13T01:52:46.967Z,9.43
2022-10-13T01:55:14.594Z,9.48
2022-10-13T01:57:44.747Z,9.38
2022-10-13T02:00:17.785Z,9.77
2022-10-13T02:03:03.104Z,9.35
2022-10-13T02:06:06.018Z,10.07
2022-10-13T02:08:54.642Z,9.65
2022-10-13T02:11:23.790Z,9.70
2022-10-13T02:14:16.132Z,9.65
2022-10-13T02:16:45.826Z,9.70
2022-10-13T02:19:15.913Z,10.35
2022-10-13T02:21:44.497Z,10.10
2022-10-13T02:24:13.644Z,9.43
2022-10-13T02:26:41.797Z,9.65
2022-10-13T02:29:14.630Z,8.27
2022-10-13T02:31:43.043Z,9.32
2022-10-13T02:34:10.735Z,8.60
2022-10-13T02:36:39.081Z,9.68
2022-10-13T02:39:10.892Z,9.45
2022-10-13T02:44:06.677Z,8.82
2022-10-13T02:46:35.230Z,8.70
2022-10-13T02:49:02.525Z,9.32
2022-10-13T02:51:30.966Z,9.05
2022-10-13T02:53:58.697Z,9.30
2022-10-13T02:56:26.041Z,8.20
2022-10-13T02:58:53.680Z,9.00
2022-10-13T03:01:20.974Z,9.73
2022-10-13T03:03:48.263Z,9.32
2022-10-13T03:06:15.628Z,9.38
2022-10-13T03:08:43.102Z,10.23
2022-10-13T03:11:10.507Z,9.10
2022-10-13T03:13:38.289Z,9.38
2022-10-13T03:16:07.537Z,8.80
2022-10-13T03:18:35.109Z,8.68
2022-10-13T03:21:05.637Z,8.48
2022-10-13T03:23:34.057Z,8.15
2022-10-13T03:26:01.439Z,9.80
2022-10-13T03:28:29.008Z,9.95
2022-10-13T03:31:03.730Z,9.82
2022-10-13T03:33:31.017Z,10.20
2022-10-13T03:36:03.157Z,9.05
2022-10-13T03:38:32.424Z,9.68
2022-10-13T03:41:06.066Z,9.77
2022-10-13T03:43:33.600Z,10.52
2022-10-13T03:46:02.726Z,10.02
2022-10-13T03:48:30.781Z,9.23
2022-10-13T03:50:58.280Z,10.10
2022-10-13T03:53:26.145Z,9.57
2022-10-13T03:55:55.430Z,9.88
2022-10-13T03:58:24.628Z,10.32
2022-10-13T04:00:53.882Z,10.33
2022-10-13T04:03:21.343Z,10.85
2022-10-13T04:05:48.771Z,10.48
2022-10-13T04:08:18.419Z,10.40
2022-10-13T04:10:45.829Z,11.00
2022-10-13T04:13:13.168Z,10.20
2022-10-13T04:15:41.788Z,9.52
2022-10-13T04:18:11.118Z,9.07
2022-10-13T04:20:39.839Z,9.63
2022-10-13T04:23:07.743Z,10.30
2022-10-13T04:25:38.842Z,8.88
2022-10-13T04:28:07.010Z,8.55
2022-10-13T04:30:37.013Z,8.85
2022-10-13T04:33:04.605Z,10.00
2022-10-13T04:35:32.172Z,9.38
2022-10-13T04:37:59.806Z,10.52
2022-10-13T04:40:27.551Z,9.77
2022-10-13T04:42:54.930Z,10.02
2022-10-13T04:45:22.427Z,10.30
2022-10-13T04:47:50.620Z,9.80
2022-10-13T04:50:22.406Z,9.50
2022-10-13T04:52:59.870Z,9.70
2022-10-13T04:55:27.217Z,8.85
2022-10-13T04:57:54.617Z,9.85
2022-10-13T05:00:21.991Z,8.80
2022-10-13T05:02:49.977Z,10.48
2022-10-13T05:05:17.508Z,10.23
2022-10-13T05:07:44.894Z,9.75
2022-10-13T05:10:12.256Z,11.00
2022-10-13T05:12:39.531Z,9.93
2022-10-13T05:15:07.445Z,9.98
2022-10-13T05:17:35.739Z,9.75
2022-10-13T05:20:09.267Z,9.30
2022-10-13T05:22:36.597Z,9.88
2022-10-13T05:25:04.381Z,10.40
2022-10-13T05:27:31.720Z,9.73
2022-10-13T05:30:01.814Z,9.45
2022-10-13T05:32:29.109Z,9.07
2022-10-13T05:34:56.437Z,9.77
2022-10-13T05:37:23.857Z,9.27
2022-10-13T05:39:51.247Z,10.30
2022-10-13T05:42:19.055Z,9.27
2022-10-13T05:44:46.876Z,10.05
2022-10-13T05:47:14.226Z,10.10
2022-10-13T05:49:41.692Z,10.02
2022-10-13T05:52:11.830Z,8.82
2022-10-13T05:54:47.095Z,9.32
2022-10-13T05:57:25.246Z,9.93
2022-10-13T06:00:02.557Z,9.35
2022-10-13T06:03:08.901Z,9.20
2022-10-13T06:05:36.733Z,9.10
2022-10-13T06:08:04.395Z,10.20
2022-10-13T06:10:32.018Z,9.73
2022-10-13T06:12:59.347Z,9.77
2022-10-13T06:15:28.348Z,10.32
2022-10-13T06:17:56.846Z,10.52
2022-10-13T06:20:24.505Z,12.75
2022-10-13T06:22:51.956Z,12.52
2022-10-13T06:25:19.259Z,11.80
2022-10-13T06:27:46.550Z,11.05
2022-10-13T06:30:13.931Z,12.65
2022-10-13T06:32:41.282Z,12.30
2022-10-13T06:35:09.071Z,10.63
2022-10-13T06:37:36.725Z,10.93
2022-10-13T06:40:05.592Z,10.35
2022-10-13T06:42:34.818Z,9.95
2022-10-13T06:45:09.886Z,10.00
2022-10-13T06:47:40.898Z,9.88
2022-10-13T06:50:08.635Z,8.98
2022-10-13T06:52:35.920Z,10.02
2022-10-13T06:55:03.636Z,9.55
2022-10-13T06:57:33.235Z,10.07
2022-10-13T07:00:02.462Z,11.20
2022-10-13T07:02:29.825Z,11.60
2022-10-13T07:04:57.175Z,11.20
2022-10-13T07:07:24.526Z,12.73
2022-10-13T07:09:54.878Z,12.13
2022-10-13T07:12:22.667Z,10.98
2022-10-13T07:14:50.388Z,10.48
2022-10-13T07:17:17.977Z,10.45
2022-10-13T07:19:48.369Z,10.10
2022-10-13T07:22:16.207Z,11.23
2022-10-13T07:24:43.925Z,11.18
2022-10-13T07:27:11.245Z,11.80
2022-10-13T07:29:38.583Z,10.50
2022-10-13T07:32:06.612Z,11.55
2022-10-13T07:34:33.989Z,11.85
2022-10-13T07:37:01.381Z,12.00
2022-10-13T07:39:29.878Z,12.18
2022-10-13T07:41:57.242Z,10.90
2022-10-13T07:44:24.644Z,10.90
2022-10-13T07:46:52.025Z,11.35
2022-10-13T07:49:19.419Z,11.43
2022-10-13T07:51:46.691Z,11.20
2022-10-13T07:54:15.477Z,12.02
2022-10-13T07:56:42.873Z,11.38
2022-10-13T07:59:10.517Z,11.43
2022-10-13T08:01:37.966Z,11.52
2022-10-13T08:04:05.463Z,10.93
2022-10-13T08:06:32.742Z,11.43
2022-10-13T08:09:04.569Z,11.27
2022-10-13T08:11:32.035Z,12.45
2022-10-13T08:14:02.324Z,12.20
2022-10-13T08:16:31.538Z,11.70
2022-10-13T08:18:59.882Z,13.32
2022-10-13T08:24:17.834Z,12.52
2022-10-13T08:26:46.517Z,11.13
2022-10-13T08:29:22.004Z,10.70
2022-10-13T08:31:52.747Z,11.23
2022-10-13T08:34:21.331Z,12.13
2022-10-13T08:36:52.697Z,11.13
2022-10-13T08:39:21.773Z,11.43
2022-10-13T08:41:50.162Z,12.07
2022-10-13T08:47:38.666Z,12.95
2022-10-13T08:50:14.438Z,11.93
2022-10-13T08:52:45.344Z,12.23
2022-10-13T08:56:03.987Z,13.48
2022-10-13T08:58:35.837Z,11.68
2022-10-13T09:01:08.919Z,11.52
2022-10-13T09:04:15.475Z,12.30
2022-10-13T09:06:58.812Z,11.90
2022-10-13T09:09:26.217Z,11.27
2022-10-13T09:11:53.711Z,11.13
2022-10-13T09:14:27.887Z,11.57
2022-10-13T09:17:12.088Z,11.52
2022-10-13T09:19:40.945Z,10.95
2022-10-13T09:22:27.811Z,11.02
2022-10-13T09:25:07.487Z,9.82
2022-10-13T09:27:51.937Z,11.20
2022-10-13T09:30:39.122Z,11.73
2022-10-13T09:33:09.440Z,12.68
2022-10-13T09:35:38.635Z,12.20
2022-10-13T09:38:16.082Z,11.68
2022-10-13T09:41:00.235Z,13.18
2022-10-13T09:43:34.330Z,12.82
2022-10-13T09:46:04.143Z,13.45
2022-10-13T09:48:35.691Z,13.45
2022-10-13T09:51:03.415Z,13.85
2022-10-13T09:53:35.434Z,12.05
2022-10-13T09:56:27.926Z,11.32
2022-10-13T09:59:07.443Z,11.00
2022-10-13T10:01:40.397Z,10.63
2022-10-13T10:04:14.251Z,11.95
2022-10-13T10:06:42.973Z,12.25
2022-10-13T10:09:33.336Z,12.13
2022-10-13T10:12:02.983Z,13.48
2022-10-13T10:14:36.333Z,11.10
2022-10-13T10:17:09.681Z,11.98
2022-10-13T10:19:42.865Z,12.13
2022-10-13T10:22:10.209Z,13.60
2022-10-13T10:24:48.213Z,13.15
2022-10-13T10:27:26.128Z,13.13
2022-10-13T10:30:01.861Z,12.80
2022-10-13T10:32:59.150Z,13.80
2022-10-13T10:35:52.025Z,11.35
2022-10-13T10:38:31.688Z,13.23
2022-10-13T10:41:24.963Z,12.65
2022-10-13T10:44:15.922Z,12.30
2022-10-13T10:46:47.931Z,13.88
2022-10-13T10:49:30.499Z,14.38
2022-10-13T10:52:05.948Z,11.50
2022-10-13T10:54:49.665Z,11.52
2022-10-13T10:57:29.278Z,11.32
2022-10-13T11:00:19.541Z,13.38
2022-10-13T11:03:07.075Z,10.93
2022-10-13T11:06:00.263Z,13.00
2022-10-13T11:08:47.180Z,12.70
2022-10-13T11:11:24.803Z,12.95
2022-10-13T11:14:16.540Z,14.05
2022-10-13T11:17:02.574Z,13.40
2022-10-13T11:19:40.379Z,13.15
2022-10-13T11:22:07.686Z,12.57
2022-10-13T11:24:46.478Z,11.32
2022-10-13T11:27:16.933Z,9.32
2022-10-13T11:29:44.318Z,11.75
2022-10-13T11:32:27.072Z,11.95
2022-10-13T11:35:20.050Z,13.80
2022-10-13T11:38:08.303Z,11.43
2022-10-13T11:40:58.254Z,10.35
2022-10-13T11:44:16.890Z,11.70
2022-10-13T11:47:16.007Z,11.25
2022-10-13T11:50:01.883Z,10.70
2022-10-13T11:52:58.008Z,10.48
2022-10-13T11:55:37.277Z,10.23
2022-10-13T11:58:23.931Z,11.95
2022-10-13T12:00:55.448Z,10.95
2022-10-13T12:03:32.797Z,11.40
2022-10-13T12:06:05.547Z,10.65
2022-10-13T12:08:37.953Z,10.27
2022-10-13T12:11:07.496Z,10.75
2022-10-13T12:13:37.273Z,10.18
2022-10-13T12:16:06.839Z,9.73
2022-10-13T12:18:39.930Z,11.13
2022-10-13T12:21:13.668Z,11.40
2022-10-13T12:23:41.439Z,11.30
2022-10-13T12:26:21.692Z,11.32
2022-10-13T12:29:01.843Z,10.20
2022-10-13T12:31:40.677Z,10.65
2022-10-13T12:34:34.342Z,11.00
2022-10-13T12:37:33.521Z,9.43
2022-10-13T12:40:04.469Z,10.88
2022-10-13T12:42:34.887Z,8.73
2022-10-13T12:45:03.238Z,9.30
2022-10-13T12:47:47.525Z,10.63
2022-10-13T12:50:29.942Z,9.60
2022-10-13T12:53:09.765Z,9.93
2022-10-13T12:55:50.201Z,12.85
2022-10-13T12:58:22.685Z,12.13
2022-10-13T13:01:18.471Z,9.80
2022-10-13T13:03:45.948Z,11.48
2022-10-13T13:06:16.463Z,11.73
2022-10-13T13:08:43.925Z,9.52
2022-10-13T13:11:33.445Z,10.60
2022-10-13T13:14:25.518Z,11.23
2022-10-13T13:17:11.217Z,11.40
2022-10-13T13:19:39.367Z,9.70
2022-10-13T13:22:09.452Z,10.55
2022-10-13T13:24:40.294Z,9.63
2022-10-13T13:27:48.697Z,9.55
2022-10-13T13:30:20.471Z,11.38
2022-10-13T13:32:49.675Z,10.60
2022-10-13T13:35:17.698Z,9.85
2022-10-13T13:37:49.729Z,12.30
2022-10-13T13:40:26.902Z,11.15
2022-10-13T13:42:54.955Z,9.88
2022-10-13T13:45:25.423Z,9.88
2022-10-13T13:47:59.569Z,9.02
2022-10-13T13:50:33.861Z,10.88
2022-10-13T13:53:02.057Z,10.98
2022-10-13T13:55:30.139Z,12.70
2022-10-13T13:57:58.312Z,12.18
2022-10-13T14:00:26.694Z,11.07
2022-10-13T14:02:58.847Z,11.32
2022-10-13T14:05:26.628Z,12.50
2022-10-13T14:07:56.737Z,10.15
2022-10-13T14:10:25.382Z,11.32
2022-10-13T14:12:52.945Z,12.20
2022-10-13T14:15:21.042Z,12.00
2022-10-13T14:17:51.408Z,13.60
2022-10-13T14:20:18.808Z,13.02
2022-10-13T14:22:46.186Z,12.32
2022-10-13T14:25:14.533Z,12.15
2022-10-13T14:27:41.970Z,13.57
2022-10-13T14:30:10.062Z,12.90
2022-10-13T14:32:37.818Z,13.30
2022-10-13T14:35:05.945Z,12.15
2022-10-13T14:37:34.273Z,13.57
2022-10-13T14:40:02.003Z,14.38
2022-10-13T14:42:29.286Z,14.30
2022-10-13T14:44:56.627Z,14.63
2022-10-13T14:47:24.148Z,15.05
2022-10-13T14:49:51.511Z,16.83
2022-10-13T14:52:18.832Z,15.55
2022-10-13T14:54:46.120Z,16.48
2022-10-13T14:57:16.065Z,15.30
2022-10-13T14:59:43.741Z,15.75
2022-10-13T15:02:11.882Z,14.82
2022-10-13T15:04:42.124Z,15.82
2022-10-13T15:07:09.477Z,15.13
2022-10-13T15:09:53.271Z,16.45
2022-10-13T15:12:24.299Z,16.20
2022-10-13T15:14:51.662Z,15.75
2022-10-13T15:17:18.986Z,17.23
2022-10-13T15:19:46.426Z,17.10
2022-10-13T15:22:13.946Z,17.58
2022-10-13T15:24:41.298Z,15.90
2022-10-13T15:27:08.678Z,16.30
2022-10-13T15:29:35.966Z,17.40
2022-10-13T15:32:11.752Z,16.55
2022-10-13T15:34:42.165Z,18.73
2022-10-13T15:37:09.519Z,17.73
2022-10-13T15:39:37.397Z,17.92
2022-10-13T15:42:05.650Z,17.48
2022-10-13T15:44:51.055Z,18.38
2022-10-13T15:47:20.201Z,18.15
2022-10-13T15:49:47.525Z,16.90
2022-10-13T15:52:14.952Z,16.67
2022-10-13T15:54:42.407Z,18.98
2022-10-13T15:57:09.669Z,18.02
2022-10-13T15:59:37.028Z,17.45
2022-10-13T16:02:04.418Z,17.98
2022-10-13T16:04:37.109Z,18.15
2022-10-13T16:07:04.758Z,17.20
2022-10-13T16:09:32.106Z,18.92
2022-10-13T16:11:59.423Z,16.83
2022-10-13T16:14:26.718Z,16.92
2022-10-13T16:16:54.049Z,16.48
2022-10-13T16:19:21.492Z,17.50
2022-10-13T16:21:49.443Z,18.38
2022-10-13T16:24:16.800Z,18.75
2022-10-13T16:26:44.135Z,18.80
2022-10-13T16:29:11.521Z,17.45
2022-10-13T16:31:38.832Z,17.95
2022-10-13T16:34:06.371Z,20.10
2022-10-13T16:36:34.000Z,18.33
2022-10-13T16:39:01.498Z,20.05
2022-10-13T16:41:28.858Z,18.65
2022-10-13T16:43:56.229Z,18.30
2022-10-13T16:46:23.701Z,18.58
2022-10-13T16:48:51.121Z,18.27
2022-10-13T16:51:21.804Z,16.33
2022-10-13T16:53:51.040Z,17.98
2022-10-13T16:56:22.195Z,16.42
2022-10-13T16:58:54.902Z,17.20
2022-10-13T17:01:23.144Z,16.15
2022-10-13T17:03:51.404Z,17.42
2022-10-13T17:06:20.718Z,17.85
2022-10-13T17:08:56.612Z,16.75
2022-10-13T17:11:26.796Z,18.83
2022-10-13T17:13:57.014Z,18.15
2022-10-13T17:16:25.019Z,17.58
2022-10-13T17:18:52.543Z,18.67
2022-10-13T17:21:21.974Z,17.45
2022-10-13T17:23:49.675Z,17.35
2022-10-13T17:26:19.029Z,18.73
2022-10-13T17:28:46.482Z,18.10
2022-10-13T17:31:22.183Z,20.40
2022-10-13T17:33:50.739Z,19.90
2022-10-13T17:36:21.155Z,18.95
2022-10-13T17:38:50.091Z,18.60
2022-10-13T17:41:18.091Z,17.63
2022-10-13T17:43:51.187Z,18.13
2022-10-13T17:46:38.728Z,18.15
2022-10-13T17:49:09.684Z,18.67
2022-10-13T17:51:37.280Z,19.50
2022-10-13T17:54:05.189Z,22.00
2022-10-13T17:56:32.535Z,20.13
2022-10-13T17:59:00.762Z,20.30
2022-10-13T18:01:31.622Z,18.77
2022-10-13T18:04:20.477Z,18.40
2022-10-13T18:06:47.953Z,17.77
2022-10-13T18:09:20.869Z,18.88
2022-10-13T18:11:51.216Z,18.02
2022-10-13T18:14:21.203Z,17.65
2022-10-13T18:16:50.235Z,20.80
2022-10-13T18:19:17.873Z,22.30
2022-10-13T18:21:45.341Z,21.58
2022-10-13T18:24:12.832Z,19.42
2022-10-13T18:26:40.596Z,19.80
2022-10-13T18:29:10.271Z,19.55
2022-10-13T18:31:39.685Z,19.00
2022-10-13T18:34:10.742Z,20.55
2022-10-13T18:36:40.936Z,21.00
2022-10-13T18:39:30.095Z,20.73
2022-10-13T18:41:57.841Z,20.65
2022-10-13T18:44:34.413Z,22.45
2022-10-13T18:47:02.154Z,22.08
2022-10-13T18:49:33.140Z,21.95
2022-10-13T18:52:01.785Z,21.03
2022-10-13T18:54:30.181Z,20.70
2022-10-13T18:56:57.905Z,20.80
2022-10-13T18:59:25.422Z,20.70
2022-10-13T19:01:52.863Z,23.05
2022-10-13T19:04:22.375Z,23.27
2022-10-13T19:06:51.056Z,21.33
2022-10-13T19:09:18.474Z,22.00
2022-10-13T19:11:45.909Z,20.65
2022-10-13T19:14:16.649Z,21.80
2022-10-13T19:16:44.380Z,19.90
2022-10-13T19:19:12.621Z,21.55
2022-10-13T19:21:40.575Z,21.40
2022-10-13T19:24:10.052Z,20.52
2022-10-13T19:26:37.864Z,19.92
2022-10-13T19:29:11.131Z,19.60
2022-10-13T19:31:40.404Z,19.80
2022-10-13T19:34:08.787Z,19.98
2022-10-13T19:36:39.878Z,19.35
2022-10-13T19:39:20.862Z,20.23
2022-10-13T19:41:49.905Z,21.10
2022-10-13T19:44:18.672Z,20.73
2022-10-13T19:46:47.579Z,21.35
2022-10-13T19:49:17.515Z,20.67
2022-10-13T19:51:45.735Z,21.27
2022-10-13T19:54:13.595Z,20.80
2022-10-13T19:56:47.483Z,22.23
2022-10-13T19:59:15.744Z,19.67
2022-10-13T20:01:43.361Z,19.98
2022-10-13T20:04:15.907Z,20.58
2022-10-13T20:06:46.692Z,19.17
2022-10-13T20:09:14.969Z,20.63
2022-10-13T20:11:46.303Z,20.55
2022-10-13T20:14:14.721Z,21.17
2022-10-13T20:16:42.440Z,21.50
2022-10-13T20:19:11.752Z,20.40
2022-10-13T20:21:39.899Z,20.02
2022-10-13T20:24:12.274Z,21.92
2022-10-13T20:26:41.035Z,21.08
2022-10-13T20:29:09.057Z,21.90
2022-10-13T20:31:36.619Z,21.20
2022-10-13T20:34:04.152Z,21.33
2022-10-13T20:36:36.002Z,21.75
2022-10-13T20:39:06.469Z,21.00
2022-10-13T20:41:34.848Z,20.13
2022-10-13T20:44:02.744Z,21.67
2022-10-13T20:46:33.086Z,19.05
2022-10-13T20:49:15.820Z,21.48
2022-10-13T20:51:43.784Z,20.77
2022-10-13T20:54:12.912Z,22.00
2022-10-13T20:56:41.001Z,22.50
2022-10-13T20:59:11.731Z,21.65
2022-10-13T21:01:39.280Z,21.65
2022-10-13T21:04:06.788Z,21.60
2022-10-13T21:06:34.383Z,18.67
2022-10-13T21:09:02.767Z,19.85
2022-10-13T21:11:30.090Z,21.50
2022-10-13T21:13:57.637Z,22.13
2022-10-13T21:16:27.473Z,22.15
2022-10-13T21:18:56.600Z,20.52
2022-10-13T21:21:29.375Z,21.42
2022-10-13T21:24:02.050Z,19.70
2022-10-13T21:26:30.913Z,21.65
2022-10-13T21:28:58.839Z,21.45
2022-10-13T21:31:27.524Z,20.15
2022-10-13T21:33:55.268Z,21.13
2022-10-13T21:36:31.388Z,19.90
2022-10-13T21:39:02.158Z,20.55
2022-10-13T21:41:30.200Z,20.80
2022-10-13T21:43:57.588Z,19.92
2022-10-13T21:46:30.412Z,21.23
2022-10-13T21:48:59.910Z,20.88
2022-10-13T21:51:38.788Z,20.92
2022-10-13T21:54:10.216Z,20.80
2022-10-13T21:56:38.784Z,20.17
2022-10-13T21:59:07.399Z,20.17
2022-10-13T22:01:34.857Z,20.73
2022-10-13T22:04:12.008Z,22.50
2022-10-13T22:06:39.594Z,20.67
2022-10-13T22:09:07.477Z,19.73
2022-10-13T22:11:36.678Z,21.38
2022-10-13T22:14:11.344Z,20.88
2022-10-13T22:16:41.372Z,20.75
2022-10-13T22:19:08.969Z,22.05
2022-10-13T22:21:40.924Z,20.33
2022-10-13T22:24:11.552Z,20.30
2022-10-13T22:26:41.424Z,20.27
2022-10-13T22:29:10.676Z,20.50
2022-10-13T22:31:39.035Z,21.70
2022-10-13T22:34:10.761Z,21.27
2022-10-13T22:36:43.658Z,21.38
2022-10-13T22:39:12.645Z,20.40
2022-10-13T22:41:40.218Z,20.88
2022-10-13T22:44:07.646Z,20.58
2022-10-13T22:46:36.751Z,21.42
2022-10-13T22:49:05.894Z,21.20
2022-10-13T22:51:34.877Z,21.67
2022-10-13T22:54:02.941Z,19.02
2022-10-13T22:56:32.967Z,21.38
2022-10-13T22:59:04.074Z,20.60
2022-10-13T23:01:31.667Z,21.83
2022-10-13T23:03:59.501Z,20.15
2022-10-13T23:06:29.542Z,20.08
2022-10-13T23:09:00.882Z,19.83
2022-10-13T23:11:28.334Z,21.05
2022-10-13T23:13:56.114Z,20.20
2022-10-13T23:16:25.431Z,20.63
2022-10-13T23:18:53.322Z,19.52
2022-10-13T23:21:26.210Z,22.02
2022-10-13T23:23:59.398Z,21.63
2022-10-13T23:26:27.878Z,21.23
2022-10-13T23:28:56.746Z,21.17
2022-10-13T23:31:25.172Z,21.15
2022-10-13T23:33:52.941Z,21.05
2022-10-13T23:36:22.404Z,21.30
2022-10-13T23:38:55.465Z,21.73
2022-10-13T23:41:22.964Z,21.20
2022-10-13T23:43:50.615Z,21.30
2022-10-13T23:46:18.048Z,20.83
2022-10-13T23:48:45.671Z,20.98
2022-10-13T23:51:19.264Z,20.85
2022-10-13T23:53:47.234Z,22.10
2022-10-13T23:56:15.881Z,21.63
2022-10-13T23:58:44.544Z,20.58
